sensor_id;sensor_type;location;lat;lon;timestamp;pressure;altitude;pressure_sealevel;temperature;humidity
6433;BME280;3249;42.690;23.260;2024-01-25T00:00:25;94758.28;;;3.19;100.00
6433;BME280;3249;42.690;23.260;2024-01-25T00:02:54;94759.56;;;2.91;100.00
6433;BME280;3249;42.690;23.260;2024-01-25T00:05:24;94745.75;;;3.09;100.00
6433;BME280;3249;42.690;23.260;2024-01-25T00:07:53;94747.66;;;3.23;100.00
6433;BME280;3249;42.690;23.260;2024-01-25T00:10:22;94736.53;;;3.24;100.00
6433;BME280;3249;42.690;23.260;2024-01-25T00:12:52;94724.91;;;3.30;100.00
6433;BME280;3249;42.690;23.260;2024-01-25T00:15:21;94709.97;;;3.27;100.00
6433;BME280;3249;42.690;23.260;2024-01-25T00:17:53;94693.44;;;3.31;100.00
6433;BME280;3249;42.690;23.260;2024-01-25T00:20:23;94680.09;;;3.21;100.00
6433;BME280;3249;42.690;23.260;2024-01-25T00:22:52;94661.03;;;3.17;100.00
6433;BME280;3249;42.690;23.260;2024-01-25T00:25:21;94655.44;;;3.21;100.00
6433;BME280;3249;42.690;23.260;2024-01-25T00:27:51;94650.84;;;3.25;100.00
6433;BME280;3249;42.690;23.260;2024-01-25T00:30:20;94653.72;;;3.22;100.00
6433;BME280;3249;42.690;23.260;2024-01-25T00:32:49;94646.72;;;3.32;100.00
6433;BME280;3249;42.690;23.260;2024-01-25T00:35:22;94651.41;;;3.43;100.00
6433;BME280;3249;42.690;23.260;2024-01-25T00:37:52;94651.63;;;3.17;100.00
6433;BME280;3249;42.690;23.260;2024-01-25T00:40:21;94669.19;;;2.72;100.00
6433;BME280;3249;42.690;23.260;2024-01-25T00:42:51;94674.72;;;2.60;100.00
6433;BME280;3249;42.690;23.260;2024-01-25T00:45:23;94663.63;;;2.53;100.00
6433;BME280;3249;42.690;23.260;2024-01-25T00:47:53;94660.44;;;2.67;100.00
6433;BME280;3249;42.690;23.260;2024-01-25T00:50:26;94650.56;;;2.96;100.00
6433;BME280;3249;42.690;23.260;2024-01-25T00:52:56;94643.09;;;3.10;100.00
6433;BME280;3249;42.690;23.260;2024-01-25T00:55:26;94625.47;;;2.93;100.00
6433;BME280;3249;42.690;23.260;2024-01-25T00:57:55;94655.00;;;3.10;100.00
6433;BME280;3249;42.690;23.260;2024-01-25T01:00:27;94650.53;;;3.12;100.00
6433;BME280;3249;42.690;23.260;2024-01-25T01:02:58;94598.00;;;2.80;100.00
6433;BME280;3249;42.690;23.260;2024-01-25T01:05:33;94663.59;;;3.17;100.00
6433;BME280;3249;42.690;23.260;2024-01-25T01:08:03;94668.97;;;3.14;100.00
6433;BME280;3249;42.690;23.260;2024-01-25T01:10:33;94657.53;;;3.18;100.00
6433;BME280;3249;42.690;23.260;2024-01-25T01:13:03;94651.19;;;3.14;100.00
6433;BME280;3249;42.690;23.260;2024-01-25T01:15:32;94654.66;;;3.21;100.00
6433;BME280;3249;42.690;23.260;2024-01-25T01:18:01;94651.78;;;3.32;100.00
6433;BME280;3249;42.690;23.260;2024-01-25T01:20:34;94631.09;;;3.35;100.00
6433;BME280;3249;42.690;23.260;2024-01-25T01:23:04;94612.47;;;3.42;100.00
6433;BME280;3249;42.690;23.260;2024-01-25T01:25:33;94603.56;;;3.46;100.00
6433;BME280;3249;42.690;23.260;2024-01-25T01:28:03;94602.25;;;3.58;100.00
6433;BME280;3249;42.690;23.260;2024-01-25T01:30:32;94603.81;;;3.59;100.00
6433;BME280;3249;42.690;23.260;2024-01-25T01:33:01;94610.97;;;3.64;100.00
6433;BME280;3249;42.690;23.260;2024-01-25T01:35:33;94599.78;;;3.73;100.00
6433;BME280;3249;42.690;23.260;2024-01-25T01:38:03;94604.19;;;3.79;100.00
6433;BME280;3249;42.690;23.260;2024-01-25T01:40:32;94601.00;;;3.85;100.00
6433;BME280;3249;42.690;23.260;2024-01-25T01:43:02;94591.91;;;3.90;100.00
6433;BME280;3249;42.690;23.260;2024-01-25T01:45:31;94592.22;;;3.87;100.00
6433;BME280;3249;42.690;23.260;2024-01-25T01:48:00;94556.75;;;3.86;100.00
6433;BME280;3249;42.690;23.260;2024-01-25T01:50:30;94575.72;;;4.06;100.00
6433;BME280;3249;42.690;23.260;2024-01-25T01:53:01;94569.38;;;4.02;100.00
6433;BME280;3249;42.690;23.260;2024-01-25T01:55:31;94572.66;;;3.88;100.00
6433;BME280;3249;42.690;23.260;2024-01-25T01:58:00;94566.94;;;4.08;100.00
6433;BME280;3249;42.690;23.260;2024-01-25T02:00:31;94574.47;;;4.24;100.00
6433;BME280;3249;42.690;23.260;2024-01-25T02:03:04;94551.59;;;4.90;100.00
6433;BME280;3249;42.690;23.260;2024-01-25T02:05:33;94556.16;;;5.39;100.00
6433;BME280;3249;42.690;23.260;2024-01-25T02:08:06;94555.81;;;5.92;100.00
6433;BME280;3249;42.690;23.260;2024-01-25T02:10:35;94561.22;;;6.18;96.92
6433;BME280;3249;42.690;23.260;2024-01-25T02:13:05;94563.56;;;6.40;94.43
6433;BME280;3249;42.690;23.260;2024-01-25T02:15:34;94563.31;;;6.56;91.98
6433;BME280;3249;42.690;23.260;2024-01-25T02:18:04;94573.91;;;6.74;90.61
6433;BME280;3249;42.690;23.260;2024-01-25T02:20:34;94572.97;;;6.82;89.51
6433;BME280;3249;42.690;23.260;2024-01-25T02:23:06;94585.38;;;6.85;89.16
6433;BME280;3249;42.690;23.260;2024-01-25T02:25:35;94588.41;;;6.25;82.68
6433;BME280;3249;42.690;23.260;2024-01-25T02:28:05;94581.81;;;6.16;81.62
6433;BME280;3249;42.690;23.260;2024-01-25T02:30:35;94577.53;;;5.81;85.17
6433;BME280;3249;42.690;23.260;2024-01-25T02:33:04;94570.03;;;5.94;87.60
6433;BME280;3249;42.690;23.260;2024-01-25T02:35:33;94578.81;;;5.77;88.51
6433;BME280;3249;42.690;23.260;2024-01-25T02:38:06;94552.41;;;5.20;93.13
6433;BME280;3249;42.690;23.260;2024-01-25T02:40:35;94568.91;;;5.53;92.57
6433;BME280;3249;42.690;23.260;2024-01-25T02:43:05;94566.59;;;5.58;91.90
6433;BME280;3249;42.690;23.260;2024-01-25T02:45:34;94550.16;;;5.61;91.55
6433;BME280;3249;42.690;23.260;2024-01-25T02:48:04;94553.84;;;5.73;91.19
6433;BME280;3249;42.690;23.260;2024-01-25T02:50:33;94537.72;;;5.72;92.78
6433;BME280;3249;42.690;23.260;2024-01-25T02:53:06;94546.25;;;5.79;94.34
6433;BME280;3249;42.690;23.260;2024-01-25T02:55:35;94558.47;;;5.98;95.64
6433;BME280;3249;42.690;23.260;2024-01-25T02:58:05;94540.13;;;6.16;96.13
6433;BME280;3249;42.690;23.260;2024-01-25T03:00:34;94532.31;;;6.38;94.52
6433;BME280;3249;42.690;23.260;2024-01-25T03:03:03;94555.88;;;6.61;94.32
6433;BME280;3249;42.690;23.260;2024-01-25T03:05:33;94550.31;;;6.79;95.19
6433;BME280;3249;42.690;23.260;2024-01-25T03:08:06;94545.28;;;6.92;96.24
6433;BME280;3249;42.690;23.260;2024-01-25T03:10:35;94553.38;;;6.95;95.45
6433;BME280;3249;42.690;23.260;2024-01-25T03:13:05;94551.03;;;7.00;94.81
6433;BME280;3249;42.690;23.260;2024-01-25T03:15:34;94547.94;;;7.05;93.83
6433;BME280;3249;42.690;23.260;2024-01-25T03:18:06;94544.03;;;7.09;93.54
6433;BME280;3249;42.690;23.260;2024-01-25T03:20:36;94550.31;;;7.06;93.02
6433;BME280;3249;42.690;23.260;2024-01-25T03:23:08;94549.16;;;7.15;93.09
6433;BME280;3249;42.690;23.260;2024-01-25T03:25:38;94551.69;;;7.09;93.26
6433;BME280;3249;42.690;23.260;2024-01-25T03:28:07;94546.53;;;7.02;94.19
6433;BME280;3249;42.690;23.260;2024-01-25T03:30:39;94534.44;;;6.90;95.17
6433;BME280;3249;42.690;23.260;2024-01-25T03:33:08;94550.81;;;6.95;95.18
6433;BME280;3249;42.690;23.260;2024-01-25T03:35:38;94547.06;;;6.91;94.39
6433;BME280;3249;42.690;23.260;2024-01-25T03:38:10;94501.63;;;6.66;92.46
6433;BME280;3249;42.690;23.260;2024-01-25T03:40:40;94527.75;;;6.89;91.17
6433;BME280;3249;42.690;23.260;2024-01-25T03:43:09;94508.31;;;6.94;90.15
6433;BME280;3249;42.690;23.260;2024-01-25T03:45:38;94515.56;;;6.91;89.67
6433;BME280;3249;42.690;23.260;2024-01-25T03:48:07;94537.19;;;6.88;88.61
6433;BME280;3249;42.690;23.260;2024-01-25T03:50:37;94539.16;;;6.86;88.52
6433;BME280;3249;42.690;23.260;2024-01-25T03:53:06;94526.19;;;6.88;88.42
6433;BME280;3249;42.690;23.260;2024-01-25T03:55:38;94509.25;;;6.93;87.95
6433;BME280;3249;42.690;23.260;2024-01-25T03:58:07;94478.94;;;6.84;88.49
6433;BME280;3249;42.690;23.260;2024-01-25T04:00:39;94489.03;;;6.98;88.40
6433;BME280;3249;42.690;23.260;2024-01-25T04:03:09;94494.00;;;7.06;87.87
6433;BME280;3249;42.690;23.260;2024-01-25T04:05:39;94503.28;;;7.14;86.51
6433;BME280;3249;42.690;23.260;2024-01-25T04:08:08;94499.56;;;7.16;85.89
6433;BME280;3249;42.690;23.260;2024-01-25T04:10:40;94503.13;;;7.22;85.01
6433;BME280;3249;42.690;23.260;2024-01-25T04:13:10;94499.38;;;7.18;84.45
6433;BME280;3249;42.690;23.260;2024-01-25T04:15:39;94504.50;;;7.24;83.61
6433;BME280;3249;42.690;23.260;2024-01-25T04:18:08;94512.38;;;7.23;83.44
6433;BME280;3249;42.690;23.260;2024-01-25T04:20:37;94507.06;;;7.24;83.44
6433;BME280;3249;42.690;23.260;2024-01-25T04:23:07;94501.94;;;7.24;83.17
6433;BME280;3249;42.690;23.260;2024-01-25T04:25:36;94499.41;;;7.24;82.19
6433;BME280;3249;42.690;23.260;2024-01-25T04:28:08;94493.75;;;7.35;81.96
6433;BME280;3249;42.690;23.260;2024-01-25T04:30:37;94500.00;;;7.26;80.46
6433;BME280;3249;42.690;23.260;2024-01-25T04:33:07;94494.88;;;7.20;78.43
6433;BME280;3249;42.690;23.260;2024-01-25T04:35:36;94511.00;;;7.20;78.33
6433;BME280;3249;42.690;23.260;2024-01-25T04:38:05;94515.09;;;7.15;78.24
6433;BME280;3249;42.690;23.260;2024-01-25T04:40:34;94529.69;;;7.14;79.15
6433;BME280;3249;42.690;23.260;2024-01-25T04:43:19;94538.41;;;6.92;80.89
6433;BME280;3249;42.690;23.260;2024-01-25T04:45:48;94542.53;;;6.66;83.19
6433;BME280;3249;42.690;23.260;2024-01-25T04:48:18;94535.31;;;6.48;83.66
6433;BME280;3249;42.690;23.260;2024-01-25T04:50:47;94550.72;;;6.34;84.80
6433;BME280;3249;42.690;23.260;2024-01-25T04:53:16;94542.34;;;6.19;83.80
6433;BME280;3249;42.690;23.260;2024-01-25T04:55:45;94524.63;;;5.46;89.42
6433;BME280;3249;42.690;23.260;2024-01-25T04:58:15;94556.66;;;5.63;90.33
6433;BME280;3249;42.690;23.260;2024-01-25T05:00:46;94556.78;;;4.97;97.05
6433;BME280;3249;42.690;23.260;2024-01-25T05:03:18;94567.34;;;4.94;96.31
6433;BME280;3249;42.690;23.260;2024-01-25T05:05:48;94566.38;;;4.95;96.92
6433;BME280;3249;42.690;23.260;2024-01-25T05:08:17;94554.66;;;4.86;96.79
6433;BME280;3249;42.690;23.260;2024-01-25T05:10:46;94553.72;;;4.87;97.46
6433;BME280;3249;42.690;23.260;2024-01-25T05:13:15;94564.84;;;4.86;97.44
6433;BME280;3249;42.690;23.260;2024-01-25T05:15:48;94570.34;;;5.12;95.57
6433;BME280;3249;42.690;23.260;2024-01-25T05:18:18;94574.94;;;5.31;93.91
6433;BME280;3249;42.690;23.260;2024-01-25T05:20:47;94589.88;;;5.49;92.74
6433;BME280;3249;42.690;23.260;2024-01-25T05:23:16;94593.38;;;5.62;90.92
6433;BME280;3249;42.690;23.260;2024-01-25T05:25:45;94587.63;;;5.75;88.52
6433;BME280;3249;42.690;23.260;2024-01-25T05:28:15;94596.50;;;5.93;86.43
6433;BME280;3249;42.690;23.260;2024-01-25T05:30:45;94591.56;;;6.06;84.27
6433;BME280;3249;42.690;23.260;2024-01-25T05:33:17;94606.69;;;6.22;82.13
6433;BME280;3249;42.690;23.260;2024-01-25T05:35:46;94556.16;;;6.03;80.66
6433;BME280;3249;42.690;23.260;2024-01-25T05:38:15;94586.94;;;6.37;77.61
6433;BME280;3249;42.690;23.260;2024-01-25T05:40:45;94591.22;;;6.51;75.54
6433;BME280;3249;42.690;23.260;2024-01-25T05:43:14;94602.66;;;6.55;75.76
6433;BME280;3249;42.690;23.260;2024-01-25T05:45:45;94603.47;;;6.56;75.82
6433;BME280;3249;42.690;23.260;2024-01-25T05:48:17;94613.31;;;6.59;75.39
6433;BME280;3249;42.690;23.260;2024-01-25T05:50:47;94627.88;;;6.58;75.47
6433;BME280;3249;42.690;23.260;2024-01-25T05:53:17;94628.66;;;6.59;75.85
6433;BME280;3249;42.690;23.260;2024-01-25T05:55:47;94634.38;;;6.61;75.66
6433;BME280;3249;42.690;23.260;2024-01-25T05:58:17;94647.53;;;6.58;75.63
6433;BME280;3249;42.690;23.260;2024-01-25T06:00:46;94649.03;;;6.52;77.50
6433;BME280;3249;42.690;23.260;2024-01-25T06:03:18;94647.47;;;6.51;78.15
6433;BME280;3249;42.690;23.260;2024-01-25T06:05:47;94644.09;;;6.30;78.57
6433;BME280;3249;42.690;23.260;2024-01-25T06:08:16;94636.72;;;6.20;79.62
6433;BME280;3249;42.690;23.260;2024-01-25T06:10:46;94638.97;;;6.09;80.72
6433;BME280;3249;42.690;23.260;2024-01-25T06:13:16;94645.22;;;6.06;82.45
6433;BME280;3249;42.690;23.260;2024-01-25T06:15:45;94641.25;;;6.04;83.40
6433;BME280;3249;42.690;23.260;2024-01-25T06:18:14;94639.06;;;6.01;84.58
6433;BME280;3249;42.690;23.260;2024-01-25T06:20:46;94649.19;;;6.09;84.36
6433;BME280;3249;42.690;23.260;2024-01-25T06:23:16;94658.44;;;5.95;86.04
6433;BME280;3249;42.690;23.260;2024-01-25T06:25:47;94651.75;;;6.09;85.71
6433;BME280;3249;42.690;23.260;2024-01-25T06:28:16;94650.06;;;6.01;85.07
6433;BME280;3249;42.690;23.260;2024-01-25T06:30:45;94645.56;;;6.03;86.12
6433;BME280;3249;42.690;23.260;2024-01-25T06:33:14;94643.50;;;6.13;85.99
6433;BME280;3249;42.690;23.260;2024-01-25T06:35:48;94640.50;;;6.24;84.75
6433;BME280;3249;42.690;23.260;2024-01-25T06:38:18;94642.53;;;6.29;84.30
6433;BME280;3249;42.690;23.260;2024-01-25T06:40:47;94656.16;;;6.00;88.62
6433;BME280;3249;42.690;23.260;2024-01-25T06:43:16;94659.97;;;5.90;88.91
6433;BME280;3249;42.690;23.260;2024-01-25T06:45:46;94664.06;;;6.05;88.26
6433;BME280;3249;42.690;23.260;2024-01-25T06:48:15;94656.47;;;6.12;86.23
6433;BME280;3249;42.690;23.260;2024-01-25T06:50:47;94674.56;;;6.10;86.36
6433;BME280;3249;42.690;23.260;2024-01-25T06:53:17;94660.91;;;6.03;86.65
6433;BME280;3249;42.690;23.260;2024-01-25T06:55:46;94644.50;;;6.12;86.56
6433;BME280;3249;42.690;23.260;2024-01-25T06:58:15;94658.50;;;6.16;87.22
6433;BME280;3249;42.690;23.260;2024-01-25T07:00:45;94659.91;;;6.19;85.19
6433;BME280;3249;42.690;23.260;2024-01-25T07:03:14;94666.94;;;6.31;83.83
6433;BME280;3249;42.690;23.260;2024-01-25T07:05:43;94653.50;;;6.44;82.97
6433;BME280;3249;42.690;23.260;2024-01-25T07:08:15;94674.31;;;6.62;81.89
6433;BME280;3249;42.690;23.260;2024-01-25T07:10:45;94668.66;;;6.66;83.60
6433;BME280;3249;42.690;23.260;2024-01-25T07:13:14;94667.69;;;6.67;80.21
6433;BME280;3249;42.690;23.260;2024-01-25T07:15:43;94663.03;;;6.77;79.67
6433;BME280;3249;42.690;23.260;2024-01-25T07:18:13;94651.34;;;6.89;78.44
6433;BME280;3249;42.690;23.260;2024-01-25T07:20:43;94654.09;;;6.88;78.03
6433;BME280;3249;42.690;23.260;2024-01-25T07:23:15;94662.19;;;6.91;77.65
6433;BME280;3249;42.690;23.260;2024-01-25T07:25:44;94656.00;;;6.79;77.92
6433;BME280;3249;42.690;23.260;2024-01-25T07:28:13;94657.47;;;6.67;78.42
6433;BME280;3249;42.690;23.260;2024-01-25T07:30:42;94648.69;;;6.55;79.13
6433;BME280;3249;42.690;23.260;2024-01-25T07:33:13;94650.50;;;6.61;79.70
6433;BME280;3249;42.690;23.260;2024-01-25T07:35:42;94647.81;;;6.48;79.65
6433;BME280;3249;42.690;23.260;2024-01-25T07:38:17;94646.00;;;6.63;77.22
6433;BME280;3249;42.690;23.260;2024-01-25T07:40:46;94611.09;;;6.35;77.38
6433;BME280;3249;42.690;23.260;2024-01-25T07:43:15;94648.91;;;6.60;78.12
6433;BME280;3249;42.690;23.260;2024-01-25T07:45:46;94654.53;;;6.70;78.02
6433;BME280;3249;42.690;23.260;2024-01-25T07:48:15;94648.69;;;6.55;77.38
6433;BME280;3249;42.690;23.260;2024-01-25T07:50:46;94651.00;;;6.50;76.81
6433;BME280;3249;42.690;23.260;2024-01-25T07:53:18;94655.44;;;6.63;76.30
6433;BME280;3249;42.690;23.260;2024-01-25T07:55:48;94659.59;;;6.64;76.38
6433;BME280;3249;42.690;23.260;2024-01-25T07:58:17;94663.44;;;6.74;76.18
6433;BME280;3249;42.690;23.260;2024-01-25T08:00:47;94668.56;;;6.74;74.92
6433;BME280;3249;42.690;23.260;2024-01-25T08:03:17;94675.59;;;6.72;73.98
6433;BME280;3249;42.690;23.260;2024-01-25T08:05:46;94675.47;;;6.80;73.21
6433;BME280;3249;42.690;23.260;2024-01-25T08:08:20;94673.69;;;7.02;72.90
6433;BME280;3249;42.690;23.260;2024-01-25T08:10:49;94641.22;;;6.81;70.21
6433;BME280;3249;42.690;23.260;2024-01-25T08:13:18;94676.25;;;7.02;69.48
6433;BME280;3249;42.690;23.260;2024-01-25T08:15:48;94683.94;;;7.02;68.76
6433;BME280;3249;42.690;23.260;2024-01-25T08:18:19;94679.31;;;7.12;68.65
6433;BME280;3249;42.690;23.260;2024-01-25T08:20:49;94687.25;;;7.23;67.76
6433;BME280;3249;42.690;23.260;2024-01-25T08:23:21;94663.81;;;7.20;65.22
6433;BME280;3249;42.690;23.260;2024-01-25T08:25:50;94681.03;;;7.32;64.00
6433;BME280;3249;42.690;23.260;2024-01-25T08:28:20;94673.13;;;7.27;64.66
6433;BME280;3249;42.690;23.260;2024-01-25T08:30:49;94676.34;;;7.36;63.18
6433;BME280;3249;42.690;23.260;2024-01-25T08:33:19;94677.38;;;7.41;63.38
6433;BME280;3249;42.690;23.260;2024-01-25T08:35:50;94666.28;;;7.34;63.54
6433;BME280;3249;42.690;23.260;2024-01-25T08:38:23;94679.94;;;7.41;62.38
6433;BME280;3249;42.690;23.260;2024-01-25T08:40:52;94689.72;;;7.38;62.07
6433;BME280;3249;42.690;23.260;2024-01-25T08:43:22;94685.78;;;7.35;63.23
6433;BME280;3249;42.690;23.260;2024-01-25T08:45:51;94699.34;;;7.29;63.47
6433;BME280;3249;42.690;23.260;2024-01-25T08:48:20;94699.75;;;7.33;62.94
6433;BME280;3249;42.690;23.260;2024-01-25T08:50:49;94698.31;;;7.24;64.05
6433;BME280;3249;42.690;23.260;2024-01-25T08:53:23;94698.03;;;7.40;63.58
6433;BME280;3249;42.690;23.260;2024-01-25T08:55:53;94711.59;;;7.40;62.66
6433;BME280;3249;42.690;23.260;2024-01-25T08:58:22;94712.09;;;7.50;62.34
6433;BME280;3249;42.690;23.260;2024-01-25T09:00:52;94710.38;;;7.57;62.32
6433;BME280;3249;42.690;23.260;2024-01-25T09:03:21;94708.81;;;7.63;61.10
6433;BME280;3249;42.690;23.260;2024-01-25T09:05:51;94704.91;;;7.67;61.47
6433;BME280;3249;42.690;23.260;2024-01-25T09:08:22;94706.31;;;7.69;60.20
6433;BME280;3249;42.690;23.260;2024-01-25T09:10:51;94698.38;;;7.64;60.75
6433;BME280;3249;42.690;23.260;2024-01-25T09:13:20;94697.09;;;7.75;60.52
6433;BME280;3249;42.690;23.260;2024-01-25T09:15:50;94696.69;;;7.78;60.10
6433;BME280;3249;42.690;23.260;2024-01-25T09:18:20;94693.72;;;7.74;59.98
6433;BME280;3249;42.690;23.260;2024-01-25T09:20:49;94694.47;;;7.68;60.24
6433;BME280;3249;42.690;23.260;2024-01-25T09:23:18;94687.91;;;7.59;62.09
6433;BME280;3249;42.690;23.260;2024-01-25T09:25:50;94687.75;;;7.67;61.66
6433;BME280;3249;42.690;23.260;2024-01-25T09:28:19;94678.31;;;7.68;61.98
6433;BME280;3249;42.690;23.260;2024-01-25T09:30:49;94677.16;;;7.70;61.75
6433;BME280;3249;42.690;23.260;2024-01-25T09:33:18;94677.50;;;7.67;62.51
6433;BME280;3249;42.690;23.260;2024-01-25T09:35:47;94674.44;;;7.78;62.59
6433;BME280;3249;42.690;23.260;2024-01-25T09:38:16;94677.63;;;7.87;62.61
6433;BME280;3249;42.690;23.260;2024-01-25T09:40:46;94668.63;;;7.97;63.30
6433;BME280;3249;42.690;23.260;2024-01-25T09:43:18;94665.09;;;8.05;67.35
6433;BME280;3249;42.690;23.260;2024-01-25T09:45:50;94636.03;;;7.85;62.29
6433;BME280;3249;42.690;23.260;2024-01-25T09:48:22;94651.03;;;7.88;61.13
6433;BME280;3249;42.690;23.260;2024-01-25T09:50:55;94647.66;;;7.87;61.52
6433;BME280;3249;42.690;23.260;2024-01-25T09:53:24;94634.22;;;7.79;61.23
6433;BME280;3249;42.690;23.260;2024-01-25T09:55:59;94616.66;;;7.76;60.82
6433;BME280;3249;42.690;23.260;2024-01-25T09:58:37;94627.75;;;7.83;61.50
6433;BME280;3249;42.690;23.260;2024-01-25T10:01:09;94630.34;;;7.89;61.82
6433;BME280;3249;42.690;23.260;2024-01-25T10:03:41;94606.22;;;7.71;61.70
6433;BME280;3249;42.690;23.260;2024-01-25T10:06:12;94617.75;;;8.01;62.10
6433;BME280;3249;42.690;23.260;2024-01-25T10:08:41;94620.94;;;8.09;60.40
6433;BME280;3249;42.690;23.260;2024-01-25T10:11:11;94617.97;;;8.12;59.92
6433;BME280;3249;42.690;23.260;2024-01-25T10:13:45;94607.72;;;8.12;60.97
6433;BME280;3249;42.690;23.260;2024-01-25T10:16:17;94611.88;;;8.13;61.68
6433;BME280;3249;42.690;23.260;2024-01-25T10:18:48;94600.50;;;8.29;62.44
6433;BME280;3249;42.690;23.260;2024-01-25T10:21:17;94606.03;;;8.32;61.68
6433;BME280;3249;42.690;23.260;2024-01-25T10:23:47;94612.38;;;8.36;61.59
6433;BME280;3249;42.690;23.260;2024-01-25T10:26:17;94591.25;;;8.34;62.00
6433;BME280;3249;42.690;23.260;2024-01-25T10:28:53;94605.28;;;8.51;62.29
6433;BME280;3249;42.690;23.260;2024-01-25T10:31:23;94616.75;;;8.55;61.51
6433;BME280;3249;42.690;23.260;2024-01-25T10:33:53;94609.84;;;8.56;61.17
6433;BME280;3249;42.690;23.260;2024-01-25T10:36:23;94608.28;;;8.55;62.87
6433;BME280;3249;42.690;23.260;2024-01-25T10:38:54;94609.84;;;8.49;62.49
6433;BME280;3249;42.690;23.260;2024-01-25T10:41:24;94617.09;;;8.46;62.58
6433;BME280;3249;42.690;23.260;2024-01-25T10:43:56;94610.22;;;8.59;62.63
6433;BME280;3249;42.690;23.260;2024-01-25T10:46:27;94585.13;;;8.42;63.32
6433;BME280;3249;42.690;23.260;2024-01-25T10:48:57;94580.44;;;8.45;62.50
6433;BME280;3249;42.690;23.260;2024-01-25T10:51:28;94546.06;;;8.27;61.75
6433;BME280;3249;42.690;23.260;2024-01-25T10:53:59;94558.50;;;8.30;59.63
6433;BME280;3249;42.690;23.260;2024-01-25T10:56:32;94581.13;;;8.20;59.42
6433;BME280;3249;42.690;23.260;2024-01-25T10:59:04;94572.13;;;8.30;58.40
6433;BME280;3249;42.690;23.260;2024-01-25T11:01:34;94554.53;;;8.27;57.75
6433;BME280;3249;42.690;23.260;2024-01-25T11:04:12;94558.31;;;8.38;56.09
6433;BME280;3249;42.690;23.260;2024-01-25T11:06:41;94559.66;;;8.27;55.77
6433;BME280;3249;42.690;23.260;2024-01-25T11:09:16;94554.34;;;8.35;55.63
6433;BME280;3249;42.690;23.260;2024-01-25T11:11:48;94548.03;;;8.31;57.07
6433;BME280;3249;42.690;23.260;2024-01-25T11:14:20;94548.25;;;8.36;57.21
6433;BME280;3249;42.690;23.260;2024-01-25T11:16:49;94544.72;;;8.37;57.84
6433;BME280;3249;42.690;23.260;2024-01-25T11:19:20;94539.78;;;8.42;56.60
6433;BME280;3249;42.690;23.260;2024-01-25T11:21:50;94519.84;;;8.44;56.20
6433;BME280;3249;42.690;23.260;2024-01-25T11:24:22;94528.13;;;8.53;55.96
6433;BME280;3249;42.690;23.260;2024-01-25T11:26:54;94538.19;;;8.41;57.24
6433;BME280;3249;42.690;23.260;2024-01-25T11:29:25;94529.91;;;8.33;58.38
6433;BME280;3249;42.690;23.260;2024-01-25T11:31:55;94524.56;;;8.28;57.14
6433;BME280;3249;42.690;23.260;2024-01-25T11:34:24;94529.03;;;8.06;56.22
6433;BME280;3249;42.690;23.260;2024-01-25T11:36:54;94519.34;;;8.02;58.18
6433;BME280;3249;42.690;23.260;2024-01-25T11:39:23;94523.28;;;7.91;56.81
6433;BME280;3249;42.690;23.260;2024-01-25T11:41:53;94533.53;;;7.91;57.86
6433;BME280;3249;42.690;23.260;2024-01-25T11:44:25;94529.00;;;7.93;58.47
6433;BME280;3249;42.690;23.260;2024-01-25T11:46:55;94513.22;;;7.83;58.57
6433;BME280;3249;42.690;23.260;2024-01-25T11:49:25;94512.63;;;7.81;58.08
6433;BME280;3249;42.690;23.260;2024-01-25T11:51:54;94537.06;;;7.84;59.19
6433;BME280;3249;42.690;23.260;2024-01-25T11:54:23;94522.47;;;7.84;58.80
6433;BME280;3249;42.690;23.260;2024-01-25T11:56:53;94510.25;;;7.86;57.92
6433;BME280;3249;42.690;23.260;2024-01-25T11:59:25;94527.22;;;8.00;56.61
6433;BME280;3249;42.690;23.260;2024-01-25T12:01:55;94530.59;;;7.94;57.03
6433;BME280;3249;42.690;23.260;2024-01-25T12:04:24;94531.53;;;7.80;57.65
6433;BME280;3249;42.690;23.260;2024-01-25T12:06:54;94549.88;;;7.84;58.95
6433;BME280;3249;42.690;23.260;2024-01-25T12:09:23;94550.44;;;7.79;59.52
6433;BME280;3249;42.690;23.260;2024-01-25T12:11:53;94552.44;;;7.77;58.19
6433;BME280;3249;42.690;23.260;2024-01-25T12:14:27;94529.34;;;7.71;57.08
6433;BME280;3249;42.690;23.260;2024-01-25T12:16:57;94533.88;;;7.75;57.34
6433;BME280;3249;42.690;23.260;2024-01-25T12:19:28;94517.69;;;7.68;56.81
6433;BME280;3249;42.690;23.260;2024-01-25T12:21:57;94481.59;;;7.50;56.70
6433;BME280;3249;42.690;23.260;2024-01-25T12:24:27;94506.06;;;7.72;57.04
6433;BME280;3249;42.690;23.260;2024-01-25T12:26:56;94510.03;;;7.75;56.05
6433;BME280;3249;42.690;23.260;2024-01-25T12:29:28;94501.78;;;7.92;56.23
6433;BME280;3249;42.690;23.260;2024-01-25T12:31:57;94495.09;;;7.91;55.74
6433;BME280;3249;42.690;23.260;2024-01-25T12:34:27;94501.41;;;8.08;55.54
6433;BME280;3249;42.690;23.260;2024-01-25T12:36:57;94499.28;;;8.12;54.11
6433;BME280;3249;42.690;23.260;2024-01-25T12:39:26;94492.22;;;8.27;54.25
6433;BME280;3249;42.690;23.260;2024-01-25T12:41:55;94473.09;;;8.29;53.50
6433;BME280;3249;42.690;23.260;2024-01-25T12:44:27;94484.13;;;8.56;53.23
6433;BME280;3249;42.690;23.260;2024-01-25T12:46:56;94470.13;;;8.52;51.46
6433;BME280;3249;42.690;23.260;2024-01-25T12:49:29;94469.50;;;8.69;50.75
6433;BME280;3249;42.690;23.260;2024-01-25T12:51:58;94462.38;;;8.71;50.21
6433;BME280;3249;42.690;23.260;2024-01-25T12:54:27;94444.09;;;8.48;49.63
6433;BME280;3249;42.690;23.260;2024-01-25T12:56:57;94448.22;;;8.49;49.47
6433;BME280;3249;42.690;23.260;2024-01-25T12:59:29;94433.59;;;8.63;49.88
6433;BME280;3249;42.690;23.260;2024-01-25T13:01:59;94427.53;;;8.44;50.06
6433;BME280;3249;42.690;23.260;2024-01-25T13:04:28;94447.63;;;8.34;50.38
6433;BME280;3249;42.690;23.260;2024-01-25T13:06:58;94424.16;;;8.24;50.13
6433;BME280;3249;42.690;23.260;2024-01-25T13:09:28;94444.47;;;8.26;50.56
6433;BME280;3249;42.690;23.260;2024-01-25T13:12:03;94447.81;;;8.39;51.22
6433;BME280;3249;42.690;23.260;2024-01-25T13:14:35;94455.72;;;8.44;50.59
6433;BME280;3249;42.690;23.260;2024-01-25T13:17:04;94449.81;;;8.31;50.26
6433;BME280;3249;42.690;23.260;2024-01-25T13:19:34;94446.44;;;8.17;49.95
6433;BME280;3249;42.690;23.260;2024-01-25T13:22:04;94451.78;;;8.22;50.61
6433;BME280;3249;42.690;23.260;2024-01-25T13:24:34;94456.69;;;8.17;50.91
6433;BME280;3249;42.690;23.260;2024-01-25T13:27:03;94473.44;;;8.13;51.71
6433;BME280;3249;42.690;23.260;2024-01-25T13:29:35;94469.09;;;8.20;51.90
6433;BME280;3249;42.690;23.260;2024-01-25T13:32:06;94456.28;;;8.07;52.46
6433;BME280;3249;42.690;23.260;2024-01-25T13:34:36;94458.25;;;8.05;52.61